createdAt,value
2022-11-16T00:00:44.226Z,11.34
2022-11-16T00:02:48.177Z,11.38
2022-11-16T00:03:48.150Z,11.31
2022-11-16T00:05:52.133Z,11.35
2022-11-16T00:06:52.119Z,11.40
2022-11-16T00:08:56.065Z,11.38
2022-11-16T00:09:56.022Z,11.37
2022-11-16T00:11:59.992Z,11.38
2022-11-16T00:12:59.954Z,11.40
2022-11-16T00:15:03.910Z,11.43
2022-11-16T00:16:03.872Z,11.38
2022-11-16T00:18:07.826Z,11.35
2022-11-16T00:19:07.804Z,11.30
2022-11-16T00:21:11.789Z,11.26
2022-11-16T00:22:11.737Z,11.31
2022-11-16T00:24:15.720Z,11.26
2022-11-16T00:25:15.668Z,11.19
2022-11-16T00:27:08.562Z,11.26
2022-11-16T00:28:08.541Z,11.23
2022-11-16T00:30:12.504Z,11.25
2022-11-16T00:31:12.471Z,11.22
2022-11-16T00:33:16.426Z,11.16
2022-11-16T00:34:16.402Z,11.19
2022-11-16T00:36:20.363Z,11.18
2022-11-16T00:37:20.314Z,11.12
2022-11-16T00:39:24.276Z,11.13
2022-11-16T00:40:24.241Z,11.05
2022-11-16T00:42:28.209Z,11.16
2022-11-16T00:43:28.169Z,11.10
2022-11-16T00:45:32.142Z,11.15
2022-11-16T00:46:32.108Z,11.07
2022-11-16T00:48:36.348Z,11.08
2022-11-16T00:49:36.040Z,11.08
2022-11-16T00:51:40.004Z,11.16
2022-11-16T00:52:39.969Z,11.05
2022-11-16T00:53:39.955Z,11.12
2022-11-16T00:54:39.937Z,11.16
2022-11-16T00:55:39.919Z,11.08
2022-11-16T00:56:39.904Z,11.07
2022-11-16T00:57:39.881Z,11.07
2022-11-16T00:58:39.881Z,11.07
2022-11-16T00:59:39.848Z,11.00
2022-11-16T01:00:39.837Z,11.01
2022-11-16T01:01:39.909Z,11.05
2022-11-16T01:02:39.797Z,11.05
2022-11-16T01:03:39.778Z,10.98
2022-11-16T01:04:39.766Z,10.94
2022-11-16T01:05:39.746Z,10.94
2022-11-16T01:06:39.729Z,11.02
2022-11-16T01:07:39.712Z,10.94
2022-11-16T01:08:39.693Z,10.89
2022-11-16T01:09:39.675Z,10.94
2022-11-16T01:10:39.665Z,10.89
2022-11-16T01:11:39.642Z,10.98
2022-11-16T01:12:39.627Z,10.83
2022-11-16T01:13:39.606Z,10.87
2022-11-16T01:14:39.591Z,10.90
2022-11-16T01:15:39.571Z,10.83
2022-11-16T01:16:39.558Z,10.86
2022-11-16T01:17:39.537Z,10.89
2022-11-16T01:18:39.522Z,10.84
2022-11-16T01:19:39.503Z,10.87
2022-11-16T01:20:39.487Z,10.92
2022-11-16T01:21:39.469Z,10.89
2022-11-16T01:22:39.454Z,10.87
2022-11-16T01:23:39.434Z,10.82
2022-11-16T01:24:39.417Z,10.90
2022-11-16T01:25:39.401Z,10.76
2022-11-16T01:26:39.387Z,10.84
2022-11-16T01:27:39.364Z,10.86
2022-11-16T01:28:39.418Z,10.82
2022-11-16T01:29:39.329Z,10.83
2022-11-16T01:30:39.321Z,10.82
2022-11-16T01:31:39.293Z,10.82
2022-11-16T01:32:39.277Z,10.83
2022-11-16T01:33:39.270Z,10.83
2022-11-16T01:34:39.247Z,10.80
2022-11-16T01:35:39.225Z,10.89
2022-11-16T01:36:39.211Z,10.82
2022-11-16T01:37:39.190Z,10.94
2022-11-16T01:38:39.177Z,10.87
2022-11-16T01:39:39.158Z,10.84
2022-11-16T01:40:39.141Z,10.89
2022-11-16T01:41:39.120Z,10.79
2022-11-16T01:42:39.107Z,10.89
2022-11-16T01:43:39.089Z,10.75
2022-11-16T01:44:39.073Z,10.75
2022-11-16T01:45:39.052Z,10.77
2022-11-16T01:46:39.035Z,10.75
2022-11-16T01:47:39.019Z,10.72
2022-11-16T01:48:39.358Z,10.82
2022-11-16T01:49:38.989Z,10.68
2022-11-16T01:50:38.965Z,10.68
2022-11-16T01:51:38.947Z,10.72
2022-11-16T01:52:38.935Z,10.68
2022-11-16T01:53:38.911Z,10.65
2022-11-16T01:54:38.896Z,10.64
2022-11-16T01:55:38.878Z,10.68
2022-11-16T01:56:38.861Z,10.61
2022-11-16T01:57:38.842Z,10.61
2022-11-16T01:58:38.830Z,10.51
2022-11-16T01:59:38.808Z,10.57
2022-11-16T02:00:38.794Z,10.59
2022-11-16T02:01:38.803Z,10.46
2022-11-16T02:02:38.756Z,10.55
2022-11-16T02:03:38.741Z,10.57
2022-11-16T02:04:38.722Z,10.51
2022-11-16T02:05:38.711Z,10.49
2022-11-16T02:06:38.688Z,10.57
2022-11-16T02:07:38.668Z,10.49
2022-11-16T02:08:38.653Z,10.48
2022-11-16T02:09:38.631Z,10.43
2022-11-16T02:10:38.617Z,10.46
2022-11-16T02:11:38.598Z,10.46
2022-11-16T02:12:38.583Z,10.48
2022-11-16T02:13:38.560Z,10.38
2022-11-16T02:14:38.549Z,10.45
2022-11-16T02:15:38.536Z,10.42
2022-11-16T02:16:38.513Z,10.41
2022-11-16T02:17:38.493Z,10.46
2022-11-16T02:18:38.479Z,10.41
2022-11-16T02:19:38.461Z,10.46
2022-11-16T02:20:38.443Z,10.41
2022-11-16T02:21:38.421Z,10.45
2022-11-16T02:22:38.408Z,10.45
2022-11-16T02:23:38.438Z,10.51
2022-11-16T02:24:38.374Z,10.39
2022-11-16T02:25:38.360Z,10.45
2022-11-16T02:26:38.341Z,10.31
2022-11-16T02:27:38.318Z,10.42
2022-11-16T02:28:38.302Z,10.45
2022-11-16T02:29:38.282Z,10.36
2022-11-16T02:30:38.269Z,10.42
2022-11-16T02:31:38.249Z,10.30
2022-11-16T02:32:38.234Z,10.42
2022-11-16T02:33:38.213Z,10.30
2022-11-16T02:34:38.197Z,10.30
2022-11-16T02:35:38.178Z,10.33
2022-11-16T02:36:38.162Z,10.42
2022-11-16T02:37:38.142Z,10.38
2022-11-16T02:38:38.127Z,10.45
2022-11-16T02:39:38.113Z,10.30
2022-11-16T02:40:38.091Z,10.33
2022-11-16T02:41:38.072Z,10.36
2022-11-16T02:42:38.055Z,10.28
2022-11-16T02:43:38.048Z,10.39
2022-11-16T02:44:38.021Z,10.36
2022-11-16T02:45:38.003Z,10.48
2022-11-16T02:46:37.999Z,10.42
2022-11-16T02:47:37.967Z,10.38
2022-11-16T02:48:37.950Z,10.39
2022-11-16T02:49:37.933Z,10.45
2022-11-16T02:50:37.924Z,10.36
2022-11-16T02:51:37.900Z,10.28
2022-11-16T02:52:37.880Z,10.43
2022-11-16T02:53:37.860Z,10.42
2022-11-16T02:54:37.846Z,10.38
2022-11-16T02:55:37.832Z,10.46
2022-11-16T02:56:37.814Z,10.48
2022-11-16T02:57:37.793Z,10.39
2022-11-16T02:58:37.779Z,10.45
2022-11-16T02:59:37.759Z,10.27
2022-11-16T03:00:37.792Z,10.38
2022-11-16T03:01:37.721Z,10.49
2022-11-16T03:02:37.709Z,10.48
2022-11-16T03:03:37.689Z,10.48
2022-11-16T03:04:37.672Z,10.30
2022-11-16T03:05:37.654Z,10.39
2022-11-16T03:06:37.638Z,10.38
2022-11-16T03:07:37.617Z,10.38
2022-11-16T03:08:37.600Z,10.43
2022-11-16T03:09:37.580Z,10.43
2022-11-16T03:10:37.567Z,10.36
2022-11-16T03:11:37.548Z,10.33
2022-11-16T03:12:37.533Z,10.41
2022-11-16T03:13:37.510Z,10.43
2022-11-16T03:14:37.497Z,10.42
2022-11-16T03:15:37.475Z,10.42
2022-11-16T03:16:37.461Z,10.31
2022-11-16T03:17:37.440Z,10.36
2022-11-16T03:18:37.426Z,10.41
2022-11-16T03:19:37.405Z,10.39
2022-11-16T03:20:37.389Z,10.36
2022-11-16T03:21:37.370Z,10.43
2022-11-16T03:22:37.355Z,10.45
2022-11-16T03:23:37.335Z,10.30
2022-11-16T03:24:37.320Z,10.45
2022-11-16T03:25:37.301Z,10.38
2022-11-16T03:26:37.289Z,10.31
2022-11-16T03:27:37.265Z,10.30
2022-11-16T03:28:37.248Z,10.30
2022-11-16T03:29:37.229Z,10.31
2022-11-16T03:30:37.235Z,10.30
2022-11-16T03:31:37.193Z,10.30
2022-11-16T03:32:37.176Z,10.30
2022-11-16T03:33:37.159Z,10.31
2022-11-16T03:34:37.148Z,10.33
2022-11-16T03:35:37.127Z,10.20
2022-11-16T03:36:37.108Z,10.27
2022-11-16T03:37:37.093Z,10.25
2022-11-16T03:38:37.397Z,10.34
2022-11-16T03:39:37.054Z,10.21
2022-11-16T03:40:37.039Z,10.24
2022-11-16T03:41:37.018Z,10.27
2022-11-16T03:42:37.001Z,10.34
2022-11-16T03:43:36.990Z,10.18
2022-11-16T03:44:36.967Z,10.25
2022-11-16T03:45:36.949Z,10.25
2022-11-16T03:46:36.932Z,10.13
2022-11-16T03:47:36.914Z,10.27
2022-11-16T03:48:37.099Z,10.18
2022-11-16T03:49:36.876Z,10.21
2022-11-16T03:50:36.859Z,10.09
2022-11-16T03:51:36.841Z,10.10
2022-11-16T03:52:36.824Z,10.17
2022-11-16T03:53:36.808Z,10.21
2022-11-16T03:54:36.788Z,10.18
2022-11-16T03:55:36.773Z,10.17
2022-11-16T03:56:36.753Z,10.15
2022-11-16T03:57:36.735Z,10.17
2022-11-16T03:58:36.902Z,10.15
2022-11-16T03:59:36.701Z,10.13
2022-11-16T04:00:36.714Z,10.15
2022-11-16T04:01:41.780Z,10.17
2022-11-16T04:02:36.644Z,10.17
2022-11-16T04:03:36.632Z,10.07
2022-11-16T04:04:36.609Z,10.13
2022-11-16T04:05:36.594Z,10.12
2022-11-16T04:06:36.577Z,10.15
2022-11-16T04:07:36.616Z,10.15
2022-11-16T04:08:36.879Z,10.06
2022-11-16T04:09:36.521Z,10.12
2022-11-16T04:10:36.502Z,10.17
2022-11-16T04:11:36.487Z,10.13
2022-11-16T04:12:36.468Z,10.15
2022-11-16T04:13:36.452Z,10.09
2022-11-16T04:14:36.433Z,10.15
2022-11-16T04:15:36.415Z,10.13
2022-11-16T04:16:36.401Z,10.18
2022-11-16T04:17:36.383Z,10.13
2022-11-16T04:18:36.652Z,10.15
2022-11-16T04:19:36.344Z,10.17
2022-11-16T04:20:36.330Z,10.18
2022-11-16T04:21:36.311Z,10.15
2022-11-16T04:22:36.290Z,10.17
2022-11-16T04:23:36.278Z,10.15
2022-11-16T04:24:36.253Z,10.09
2022-11-16T04:25:36.240Z,10.18
2022-11-16T04:26:36.219Z,10.17
2022-11-16T04:27:36.202Z,10.09
2022-11-16T04:28:36.696Z,10.10
2022-11-16T04:29:36.167Z,10.10
2022-11-16T04:30:36.148Z,10.17
2022-11-16T04:31:36.133Z,10.09
2022-11-16T04:32:36.111Z,10.21
2022-11-16T04:33:36.095Z,10.15
2022-11-16T04:34:36.077Z,10.15
2022-11-16T04:35:36.059Z,10.12
2022-11-16T04:36:36.041Z,10.20
2022-11-16T04:37:36.025Z,10.18
2022-11-16T04:38:36.392Z,10.23
2022-11-16T04:39:35.990Z,10.20
2022-11-16T04:40:35.969Z,10.23
2022-11-16T04:41:35.969Z,10.23
2022-11-16T04:42:35.937Z,10.17
2022-11-16T04:43:35.917Z,10.12
2022-11-16T04:44:35.900Z,10.12
2022-11-16T04:45:35.893Z,10.24
2022-11-16T04:46:35.861Z,10.23
2022-11-16T04:47:35.847Z,10.17
2022-11-16T04:48:36.231Z,10.10
2022-11-16T04:49:35.811Z,10.17
2022-11-16T04:50:35.793Z,10.15
2022-11-16T04:51:35.778Z,10.23
2022-11-16T04:52:35.756Z,10.12
2022-11-16T04:53:35.740Z,10.10
2022-11-16T04:54:35.721Z,10.13
2022-11-16T04:55:35.706Z,10.12
2022-11-16T04:56:35.689Z,10.17
2022-11-16T04:57:35.675Z,10.20
2022-11-16T04:58:35.957Z,10.10
2022-11-16T04:59:35.633Z,10.12
2022-11-16T05:00:35.615Z,10.23
2022-11-16T05:01:35.614Z,10.18
2022-11-16T05:02:35.579Z,10.20
2022-11-16T05:03:35.562Z,10.27
2022-11-16T05:04:35.545Z,10.31
2022-11-16T05:05:35.524Z,10.28
2022-11-16T05:06:35.508Z,10.25
2022-11-16T05:07:35.566Z,10.31
2022-11-16T05:08:35.856Z,10.31
2022-11-16T05:09:35.457Z,10.25
2022-11-16T05:10:35.436Z,10.23
2022-11-16T05:11:35.423Z,10.25
2022-11-16T05:12:35.403Z,10.24
2022-11-16T05:13:35.384Z,10.30
2022-11-16T05:14:35.368Z,10.20
2022-11-16T05:15:35.351Z,10.28
2022-11-16T05:16:35.333Z,10.30
2022-11-16T05:17:35.321Z,10.28
2022-11-16T05:18:35.600Z,10.30
2022-11-16T05:19:35.278Z,10.21
2022-11-16T05:20:35.262Z,10.25
2022-11-16T05:21:35.244Z,10.18
2022-11-16T05:22:35.227Z,10.23
2022-11-16T05:23:35.208Z,10.17
2022-11-16T05:24:35.189Z,10.17
2022-11-16T05:25:37.001Z,10.27
2022-11-16T05:26:35.155Z,10.23
2022-11-16T05:27:35.137Z,10.25
2022-11-16T05:28:35.417Z,10.27
2022-11-16T05:29:35.101Z,10.20
2022-11-16T05:30:35.083Z,10.23
2022-11-16T05:31:40.187Z,10.24
2022-11-16T05:32:35.048Z,10.17
2022-11-16T05:33:35.032Z,10.24
2022-11-16T05:34:35.015Z,10.21
2022-11-16T05:35:34.997Z,10.15
2022-11-16T05:36:34.978Z,10.24
2022-11-16T05:37:34.965Z,10.31
2022-11-16T05:38:35.277Z,10.25
2022-11-16T05:39:42.097Z,10.21
2022-11-16T05:41:38.895Z,10.24
2022-11-16T05:42:38.858Z,10.24
2022-11-16T05:44:42.838Z,10.21
2022-11-16T05:45:42.798Z,10.20
2022-11-16T05:47:46.754Z,10.18
2022-11-16T05:48:46.732Z,10.20
2022-11-16T05:50:42.796Z,10.21
2022-11-16T05:51:39.578Z,10.24
2022-11-16T05:53:43.537Z,10.25
2022-11-16T05:54:43.509Z,10.21
2022-11-16T05:56:47.474Z,10.24
2022-11-16T05:57:47.434Z,10.17
2022-11-16T05:59:51.406Z,10.12
2022-11-16T06:00:51.365Z,10.10
2022-11-16T06:02:55.374Z,10.12
2022-11-16T06:03:55.299Z,10.18
2022-11-16T06:05:59.263Z,10.13
2022-11-16T06:06:59.298Z,10.12
2022-11-16T06:09:03.193Z,10.17
2022-11-16T06:10:03.156Z,10.12
2022-11-16T06:12:07.109Z,10.18
2022-11-16T06:13:07.097Z,10.13
2022-11-16T06:15:11.055Z,10.10
2022-11-16T06:16:11.257Z,10.17
2022-11-16T06:18:14.982Z,10.07
2022-11-16T06:19:14.941Z,10.09
2022-11-16T06:21:18.903Z,10.13
2022-11-16T06:22:18.871Z,10.10
2022-11-16T06:24:22.845Z,10.18
2022-11-16T06:25:22.803Z,10.21
2022-11-16T06:27:26.768Z,10.12
2022-11-16T06:28:26.738Z,10.10
2022-11-16T06:30:19.629Z,10.15
2022-11-16T06:31:19.824Z,10.12
2022-11-16T06:33:23.563Z,10.24
2022-11-16T06:34:23.527Z,10.25
2022-11-16T06:36:27.476Z,10.24
2022-11-16T06:37:27.449Z,10.23
2022-11-16T06:39:31.411Z,10.21
2022-11-16T06:40:31.378Z,10.25
2022-11-16T06:42:35.336Z,10.23
2022-11-16T06:43:35.305Z,10.20
2022-11-16T06:45:39.272Z,10.20
2022-11-16T06:46:39.235Z,10.20
2022-11-16T06:48:43.212Z,10.20
2022-11-16T06:49:43.163Z,10.21
2022-11-16T06:51:47.115Z,10.24
2022-11-16T06:52:47.093Z,10.18
2022-11-16T06:54:51.057Z,10.21
2022-11-16T06:55:51.019Z,10.27
2022-11-16T06:57:54.968Z,10.23
2022-11-16T06:58:54.947Z,10.24
2022-11-16T07:00:47.845Z,10.28
2022-11-16T07:01:47.952Z,10.30
2022-11-16T07:03:51.770Z,10.31
2022-11-16T07:04:51.738Z,10.17
2022-11-16T07:06:55.707Z,10.25
2022-11-16T07:07:55.652Z,10.17
2022-11-16T07:09:59.617Z,10.15
2022-11-16T07:11:04.049Z,10.23
2022-11-16T07:11:59.561Z,10.12
2022-11-16T07:12:59.541Z,10.13
2022-11-16T07:13:59.530Z,10.15
2022-11-16T07:14:59.505Z,10.17
2022-11-16T07:15:59.487Z,10.10
2022-11-16T07:17:02.867Z,10.10
2022-11-16T07:17:59.453Z,10.12
2022-11-16T07:18:59.440Z,10.17
2022-11-16T07:19:59.419Z,10.13
2022-11-16T07:20:59.498Z,10.12
2022-11-16T07:21:59.387Z,10.12
2022-11-16T07:23:00.278Z,10.12
2022-11-16T07:23:59.346Z,10.15
2022-11-16T07:24:59.531Z,10.20
2022-11-16T07:25:59.313Z,10.10
2022-11-16T07:26:59.296Z,10.17
2022-11-16T07:27:59.279Z,10.20
2022-11-16T07:28:59.257Z,10.23
2022-11-16T07:29:59.241Z,10.21
2022-11-16T07:30:59.220Z,10.33
2022-11-16T07:31:59.206Z,10.33
2022-11-16T07:32:59.199Z,10.30
2022-11-16T07:33:59.170Z,10.42
2022-11-16T07:34:59.710Z,10.30
2022-11-16T07:35:59.137Z,10.41
2022-11-16T07:36:59.115Z,10.41
2022-11-16T07:37:59.099Z,10.43
2022-11-16T07:38:59.095Z,10.45
2022-11-16T07:39:59.066Z,10.43
2022-11-16T07:40:59.047Z,10.48
2022-11-16T07:41:59.029Z,10.49
2022-11-16T07:42:59.012Z,10.59
2022-11-16T07:43:58.995Z,10.55
2022-11-16T07:44:58.975Z,10.59
2022-11-16T07:46:21.399Z,10.59
2022-11-16T07:46:58.942Z,10.64
2022-11-16T07:47:58.925Z,10.68
2022-11-16T07:48:59.153Z,10.75
2022-11-16T07:49:58.897Z,10.71
2022-11-16T07:50:58.875Z,10.72
2022-11-16T07:51:58.858Z,10.75
2022-11-16T07:52:58.834Z,10.72
2022-11-16T07:53:58.820Z,10.76
2022-11-16T07:54:58.801Z,10.68
2022-11-16T07:55:58.785Z,10.69
2022-11-16T07:56:58.766Z,10.75
2022-11-16T07:57:58.751Z,10.76
2022-11-16T07:58:58.731Z,10.75
2022-11-16T07:59:58.716Z,10.76
2022-11-16T08:00:58.696Z,10.86
2022-11-16T08:01:58.720Z,10.83
2022-11-16T08:02:58.663Z,10.92
2022-11-16T08:03:58.645Z,11.01
2022-11-16T08:04:58.629Z,11.02
2022-11-16T08:05:58.611Z,11.05
2022-11-16T08:06:58.617Z,11.05
2022-11-16T08:07:58.579Z,11.23
2022-11-16T08:08:59.139Z,11.18
2022-11-16T08:09:58.599Z,11.30
2022-11-16T08:10:58.525Z,11.33
2022-11-16T08:11:58.507Z,11.34
2022-11-16T08:12:58.488Z,11.44
2022-11-16T08:13:58.474Z,11.51
2022-11-16T08:14:58.456Z,11.52
2022-11-16T08:15:58.440Z,11.65
2022-11-16T08:16:58.420Z,11.68
2022-11-16T08:17:58.407Z,11.73
2022-11-16T08:18:58.385Z,11.93
2022-11-16T08:19:58.371Z,12.02
2022-11-16T08:20:58.365Z,12.14
2022-11-16T08:21:58.336Z,12.15
2022-11-16T08:22:58.320Z,12.30
2022-11-16T08:23:58.957Z,12.47
2022-11-16T08:24:58.286Z,12.65
2022-11-16T08:25:58.273Z,12.61
2022-11-16T08:26:58.252Z,12.58
2022-11-16T08:27:58.235Z,12.63
2022-11-16T08:28:58.219Z,12.73
2022-11-16T08:29:58.204Z,12.81
2022-11-16T08:30:58.189Z,12.83
2022-11-16T08:31:58.169Z,12.83
2022-11-16T08:32:58.156Z,12.88
2022-11-16T08:33:58.141Z,12.91
2022-11-16T08:34:58.118Z,12.86
2022-11-16T08:35:58.103Z,12.75
2022-11-16T08:36:58.181Z,12.68
2022-11-16T08:37:58.070Z,12.63
2022-11-16T08:38:58.144Z,12.57
2022-11-16T08:39:58.043Z,12.61
2022-11-16T08:40:58.023Z,12.62
2022-11-16T08:41:58.008Z,12.50
2022-11-16T08:42:57.987Z,12.55
2022-11-16T08:43:57.972Z,12.53
2022-11-16T08:44:57.956Z,12.62
2022-11-16T08:45:57.940Z,12.50
2022-11-16T08:46:57.921Z,12.45
2022-11-16T08:48:03.417Z,12.54
2022-11-16T08:48:57.926Z,12.48
2022-11-16T08:49:57.876Z,12.47
2022-11-16T08:51:19.664Z,12.37
2022-11-16T08:51:57.839Z,12.37
2022-11-16T08:52:57.823Z,12.32
2022-11-16T08:53:57.848Z,12.20
2022-11-16T08:54:57.792Z,12.20
2022-11-16T08:55:57.778Z,12.21
2022-11-16T08:56:57.759Z,12.08
2022-11-16T08:57:57.744Z,12.11
2022-11-16T08:58:59.107Z,12.23
2022-11-16T08:59:57.710Z,12.14
2022-11-16T09:00:57.692Z,12.25
2022-11-16T09:01:57.723Z,12.20
2022-11-16T09:02:57.672Z,12.14
2022-11-16T09:03:57.646Z,12.07
2022-11-16T09:04:57.625Z,12.20
2022-11-16T09:05:57.609Z,12.11
2022-11-16T09:06:57.621Z,12.10
2022-11-16T09:07:57.577Z,12.18
2022-11-16T09:08:57.562Z,12.11
2022-11-16T09:09:57.544Z,12.05
2022-11-16T09:10:57.528Z,11.99
2022-11-16T09:11:57.512Z,12.10
2022-11-16T09:12:57.494Z,12.02
2022-11-16T09:13:57.483Z,11.99
2022-11-16T09:14:57.466Z,11.99
2022-11-16T09:15:57.450Z,11.91
2022-11-16T09:16:57.429Z,11.89
2022-11-16T09:17:57.411Z,11.83
2022-11-16T09:18:57.441Z,11.86
2022-11-16T09:19:57.381Z,11.77
2022-11-16T09:20:57.365Z,11.74
2022-11-16T09:21:57.346Z,11.73
2022-11-16T09:22:57.327Z,11.62
2022-11-16T09:23:57.445Z,11.59
2022-11-16T09:24:57.386Z,11.62
2022-11-16T09:25:57.280Z,11.60
2022-11-16T09:26:57.262Z,11.59
2022-11-16T09:27:57.265Z,11.62
2022-11-16T09:28:57.316Z,11.55
2022-11-16T09:29:57.221Z,11.60
2022-11-16T09:30:57.203Z,11.63
2022-11-16T09:31:57.180Z,11.63
2022-11-16T09:32:57.161Z,11.67
2022-11-16T09:33:57.148Z,11.68
2022-11-16T09:34:57.132Z,11.73
2022-11-16T09:35:57.113Z,11.78
2022-11-16T09:36:57.099Z,11.88
2022-11-16T09:37:57.080Z,11.85
2022-11-16T09:39:57.046Z,12.08
2022-11-16T09:40:57.138Z,12.12
2022-11-16T09:41:57.016Z,12.20
2022-11-16T09:42:56.995Z,12.35
2022-11-16T09:43:56.982Z,12.36
2022-11-16T09:44:56.964Z,12.53
2022-11-16T09:45:56.948Z,12.62
2022-11-16T09:46:56.929Z,12.86
2022-11-16T09:47:56.915Z,12.91
2022-11-16T09:48:56.896Z,13.05
2022-11-16T09:50:02.726Z,13.23
2022-11-16T09:50:56.864Z,13.43
2022-11-16T09:51:56.852Z,13.57
2022-11-16T09:52:56.831Z,13.64
2022-11-16T09:53:56.821Z,13.68
2022-11-16T09:54:56.801Z,13.86
2022-11-16T09:55:56.788Z,13.86
2022-11-16T09:56:56.867Z,14.00
2022-11-16T09:57:56.754Z,14.08
2022-11-16T09:58:56.738Z,14.30
2022-11-16T09:59:56.722Z,14.34
2022-11-16T10:00:56.757Z,14.45
2022-11-16T10:01:56.694Z,14.58
2022-11-16T10:02:56.677Z,14.89
2022-11-16T10:03:56.658Z,15.00
2022-11-16T10:04:58.519Z,15.32
2022-11-16T10:05:56.628Z,15.36
2022-11-16T10:06:56.703Z,15.43
2022-11-16T10:07:56.598Z,15.59
2022-11-16T10:08:56.614Z,15.76
2022-11-16T10:09:56.606Z,15.80
2022-11-16T10:10:56.554Z,15.96
2022-11-16T10:11:56.540Z,16.24
2022-11-16T10:12:56.616Z,16.43
2022-11-16T10:14:01.394Z,16.64
2022-11-16T10:14:56.493Z,16.82
2022-11-16T10:15:56.479Z,16.89
2022-11-16T10:16:56.466Z,16.98
2022-11-16T10:17:56.451Z,17.01
2022-11-16T10:18:56.432Z,17.01
2022-11-16T10:19:56.427Z,16.95
2022-11-16T10:20:56.408Z,17.04
2022-11-16T10:21:56.399Z,17.07
2022-11-16T10:22:56.376Z,16.97
2022-11-16T10:23:56.365Z,16.80
2022-11-16T10:24:56.354Z,16.64
2022-11-16T10:25:56.335Z,16.50
2022-11-16T10:26:56.321Z,16.37
2022-11-16T10:27:56.312Z,16.43
2022-11-16T10:28:56.304Z,16.37
2022-11-16T10:29:56.282Z,16.37
2022-11-16T10:30:56.269Z,16.32
2022-11-16T10:31:56.251Z,16.32
2022-11-16T10:32:56.232Z,16.46
2022-11-16T10:33:56.220Z,16.54
2022-11-16T10:34:56.208Z,16.64
2022-11-16T10:35:56.191Z,16.65
2022-11-16T10:36:56.178Z,16.73
2022-11-16T10:37:56.166Z,16.84
2022-11-16T10:38:56.151Z,16.82
2022-11-16T10:39:56.148Z,16.83
2022-11-16T10:40:56.123Z,16.87
2022-11-16T10:41:56.113Z,16.91
2022-11-16T10:42:56.096Z,16.91
2022-11-16T10:43:56.080Z,16.83
2022-11-16T10:44:56.162Z,16.73
2022-11-16T10:45:56.052Z,16.50
2022-11-16T10:46:56.035Z,16.24
2022-11-16T10:47:56.024Z,16.09
2022-11-16T10:48:56.007Z,15.76
2022-11-16T10:49:56.014Z,15.69
2022-11-16T10:50:55.979Z,15.48
2022-11-16T10:51:55.966Z,15.29
2022-11-16T10:52:55.950Z,14.97
2022-11-16T10:53:55.939Z,14.79
2022-11-16T10:54:55.923Z,14.71
2022-11-16T10:55:55.909Z,14.52
2022-11-16T10:56:55.904Z,14.49
2022-11-16T10:57:55.880Z,14.34
2022-11-16T10:58:55.861Z,14.25
2022-11-16T10:59:55.848Z,14.26
2022-11-16T11:00:56.034Z,14.30
2022-11-16T11:01:55.817Z,14.16
2022-11-16T11:02:55.807Z,14.16
2022-11-16T11:03:55.790Z,14.07
2022-11-16T11:04:55.772Z,14.08
2022-11-16T11:05:55.758Z,13.97
2022-11-16T11:06:55.760Z,13.89
2022-11-16T11:07:59.572Z,13.93
2022-11-16T11:08:55.712Z,13.97
2022-11-16T11:09:55.697Z,13.85
2022-11-16T11:10:55.683Z,13.91
2022-11-16T11:11:55.664Z,13.97
2022-11-16T11:12:55.654Z,14.01
2022-11-16T11:13:55.637Z,14.08
2022-11-16T11:14:55.620Z,14.13
2022-11-16T11:15:55.604Z,14.04
2022-11-16T11:16:55.689Z,14.25
2022-11-16T11:17:55.575Z,14.26
2022-11-16T11:18:55.570Z,14.31
2022-11-16T11:19:55.548Z,14.38
2022-11-16T11:20:55.530Z,14.49
2022-11-16T11:21:55.515Z,14.45
2022-11-16T11:22:55.505Z,14.52
2022-11-16T11:23:55.483Z,14.49
2022-11-16T11:24:55.470Z,14.56
2022-11-16T11:25:55.466Z,14.68
2022-11-16T11:26:55.440Z,14.77
2022-11-16T11:27:55.422Z,14.81
2022-11-16T11:28:55.410Z,15.05
2022-11-16T11:29:55.393Z,15.23
2022-11-16T11:30:55.380Z,15.41
2022-11-16T11:31:55.363Z,15.59
2022-11-16T11:32:55.361Z,15.87
2022-11-16T11:33:55.338Z,16.06
2022-11-16T11:34:55.321Z,16.31
2022-11-16T11:35:55.304Z,16.43
2022-11-16T11:36:55.290Z,16.68
2022-11-16T11:37:55.275Z,16.82
2022-11-16T11:38:55.292Z,16.97
2022-11-16T11:39:55.261Z,17.23
2022-11-16T11:41:02.459Z,17.53
2022-11-16T11:42:59.182Z,18.09
2022-11-16T11:43:59.152Z,18.33
2022-11-16T11:46:03.111Z,18.60
2022-11-16T11:49:07.131Z,19.37
2022-11-16T11:50:07.007Z,19.32
2022-11-16T11:51:07.005Z,19.24
2022-11-16T11:52:06.981Z,19.00
2022-11-16T11:53:06.976Z,18.70
2022-11-16T11:54:06.956Z,18.67
2022-11-16T11:55:06.965Z,18.73
2022-11-16T11:56:06.930Z,18.85
2022-11-16T11:57:06.910Z,19.05
2022-11-16T11:58:06.901Z,19.29
2022-11-16T11:59:06.894Z,19.26
2022-11-16T12:00:06.872Z,19.37
2022-11-16T12:01:06.858Z,19.34
2022-11-16T12:02:06.847Z,19.41
2022-11-16T12:03:06.905Z,19.32
2022-11-16T12:04:06.822Z,19.08
2022-11-16T12:05:06.913Z,18.91
2022-11-16T12:06:06.797Z,18.67
2022-11-16T12:07:06.863Z,18.36
2022-11-16T12:08:06.769Z,17.90
2022-11-16T12:09:06.757Z,17.65
2022-11-16T12:10:06.743Z,17.19
2022-11-16T12:11:06.729Z,16.84
2022-11-16T12:12:11.812Z,16.44
2022-11-16T12:13:06.705Z,16.13
2022-11-16T12:14:06.689Z,15.94
2022-11-16T12:15:06.686Z,15.69
2022-11-16T12:16:06.662Z,15.50
2022-11-16T12:17:06.647Z,15.29
2022-11-16T12:18:06.635Z,15.04
2022-11-16T12:19:06.617Z,15.02
2022-11-16T12:20:06.609Z,14.74
2022-11-16T12:21:06.685Z,14.68
2022-11-16T12:22:06.578Z,14.45
2022-11-16T12:23:06.562Z,14.44
2022-11-16T12:24:06.560Z,14.25
2022-11-16T12:25:06.532Z,14.26
2022-11-16T12:26:06.525Z,14.11
2022-11-16T12:27:06.504Z,14.04
2022-11-16T12:28:06.489Z,13.97
2022-11-16T12:29:06.472Z,13.91
2022-11-16T12:30:06.459Z,13.83
2022-11-16T12:31:06.446Z,13.68
2022-11-16T12:32:06.428Z,13.61
2022-11-16T12:33:06.412Z,13.58
2022-11-16T12:34:06.400Z,13.52
2022-11-16T12:35:06.383Z,13.54
2022-11-16T12:36:06.372Z,13.33
2022-11-16T12:37:06.353Z,13.37
2022-11-16T12:38:06.339Z,13.30
2022-11-16T12:39:06.322Z,13.13
2022-11-16T12:40:06.310Z,13.21
2022-11-16T12:41:06.300Z,13.08
2022-11-16T12:42:06.277Z,13.13
2022-11-16T12:43:06.261Z,13.19
2022-11-16T12:44:06.246Z,13.17
2022-11-16T12:45:06.235Z,13.20
2022-11-16T12:46:06.218Z,13.28
2022-11-16T12:47:06.205Z,13.33
2022-11-16T12:48:06.195Z,13.40
2022-11-16T12:49:06.170Z,13.45
2022-11-16T12:50:06.153Z,13.54
2022-11-16T12:51:06.142Z,13.45
2022-11-16T12:52:06.124Z,13.52
2022-11-16T12:53:06.199Z,13.52
2022-11-16T12:54:06.104Z,13.43
2022-11-16T12:56:06.066Z,13.42
2022-11-16T12:57:06.050Z,13.33
2022-11-16T12:58:06.031Z,13.37
2022-11-16T12:59:06.014Z,13.36
2022-11-16T13:00:06.007Z,13.31
2022-11-16T13:01:06.077Z,13.24
2022-11-16T13:02:05.965Z,13.21
2022-11-16T13:03:05.955Z,13.21
2022-11-16T13:04:05.940Z,13.16
2022-11-16T13:05:05.920Z,13.09
2022-11-16T13:06:05.906Z,13.12
2022-11-16T13:07:10.636Z,13.31
2022-11-16T13:08:05.873Z,13.60
2022-11-16T13:09:05.959Z,14.11
2022-11-16T13:10:05.846Z,14.67
2022-11-16T13:11:05.828Z,15.02
2022-11-16T13:12:05.816Z,15.67
2022-11-16T13:13:36.779Z,16.00
2022-11-16T13:14:05.783Z,16.41
2022-11-16T13:15:05.769Z,16.87
2022-11-16T13:16:05.756Z,17.07
2022-11-16T13:17:05.742Z,17.32
2022-11-16T13:18:05.730Z,17.42
2022-11-16T13:19:05.714Z,17.19
2022-11-16T13:20:10.222Z,17.14
2022-11-16T13:21:05.681Z,16.76
2022-11-16T13:22:05.668Z,16.44
2022-11-16T13:23:05.654Z,16.26
2022-11-16T13:24:05.640Z,16.08
2022-11-16T13:25:05.631Z,15.80
2022-11-16T13:26:06.090Z,15.75
2022-11-16T13:27:05.597Z,15.76
2022-11-16T13:28:05.589Z,15.70
2022-11-16T13:29:05.569Z,15.62
2022-11-16T13:30:05.556Z,15.50
2022-11-16T13:31:05.541Z,15.48
2022-11-16T13:32:05.526Z,15.54
2022-11-16T13:33:05.512Z,15.94
2022-11-16T13:34:05.500Z,16.21
2022-11-16T13:35:05.481Z,16.36
2022-11-16T13:36:05.469Z,16.24
2022-11-16T13:37:05.452Z,16.12
2022-11-16T13:38:05.441Z,15.88
2022-11-16T13:39:05.426Z,15.69
2022-11-16T13:40:05.531Z,15.55
2022-11-16T13:41:05.499Z,15.27
2022-11-16T13:42:05.385Z,15.08
2022-11-16T13:43:05.370Z,14.78
2022-11-16T13:44:05.354Z,14.71
2022-11-16T13:45:05.341Z,14.56
2022-11-16T13:46:05.331Z,14.53
2022-11-16T13:47:05.318Z,14.31
2022-11-16T13:48:05.299Z,14.28